sensor_id;sensor_type;location;lat;lon;timestamp;pressure;altitude;pressure_sealevel;temperature;humidity
9009;BME280;62813;51.424;6.762;2022-10-30T00:00:27;101475.59;;;18.11;60.70
9009;BME280;62813;51.424;6.762;2022-10-30T00:02:54;101475.50;;;18.12;61.00
9009;BME280;62813;51.424;6.762;2022-10-30T00:05:22;101474.66;;;18.12;60.83
9009;BME280;62813;51.424;6.762;2022-10-30T00:07:49;101476.44;;;18.11;61.29
9009;BME280;62813;51.424;6.762;2022-10-30T00:10:16;101477.34;;;18.10;61.30
9009;BME280;62813;51.424;6.762;2022-10-30T00:12:43;101479.91;;;18.12;61.35
9009;BME280;62813;51.424;6.762;2022-10-30T00:15:10;101481.47;;;18.14;60.94
9009;BME280;62813;51.424;6.762;2022-10-30T00:17:37;101486.63;;;18.16;61.24
9009;BME280;62813;51.424;6.762;2022-10-30T00:20:04;101484.78;;;18.18;60.58
9009;BME280;62813;51.424;6.762;2022-10-30T00:22:31;101481.38;;;18.16;61.07
9009;BME280;62813;51.424;6.762;2022-10-30T00:24:58;101470.78;;;18.17;60.73
9009;BME280;62813;51.424;6.762;2022-10-30T00:27:24;101480.38;;;18.18;60.84
9009;BME280;62813;51.424;6.762;2022-10-30T00:29:54;101478.84;;;18.14;61.39
9009;BME280;62813;51.424;6.762;2022-10-30T00:32:20;101486.63;;;18.16;61.08
9009;BME280;62813;51.424;6.762;2022-10-30T00:34:47;101480.75;;;18.12;61.53
9009;BME280;62813;51.424;6.762;2022-10-30T00:37:14;101477.28;;;18.12;61.59
9009;BME280;62813;51.424;6.762;2022-10-30T00:39:40;101473.97;;;18.08;61.79
9009;BME280;62813;51.424;6.762;2022-10-30T00:42:11;101472.09;;;18.10;61.42
9009;BME280;62813;51.424;6.762;2022-10-30T00:47:25;101471.53;;;18.05;61.67
9009;BME280;62813;51.424;6.762;2022-10-30T00:50:18;101476.03;;;18.03;61.84
9009;BME280;62813;51.424;6.762;2022-10-30T00:52:52;101477.91;;;18.01;62.07
9009;BME280;62813;51.424;6.762;2022-10-30T00:55:28;101479.78;;;17.99;62.27
9009;BME280;62813;51.424;6.762;2022-10-30T00:57:58;101483.16;;;18.01;62.18
9009;BME280;62813;51.424;6.762;2022-10-30T01:00:28;101485.03;;;17.99;62.36
9009;BME280;62813;51.424;6.762;2022-10-30T01:02:56;101483.44;;;17.96;62.26
9009;BME280;62813;51.424;6.762;2022-10-30T01:05:26;101481.75;;;17.95;62.24
9009;BME280;62813;51.424;6.762;2022-10-30T01:07:54;101484.47;;;17.94;62.36
9009;BME280;62813;51.424;6.762;2022-10-30T01:10:22;101484.72;;;17.89;62.58
9009;BME280;62813;51.424;6.762;2022-10-30T01:12:49;101484.94;;;17.86;63.00
9009;BME280;62813;51.424;6.762;2022-10-30T01:15:25;101484.19;;;17.84;63.17
9009;BME280;62813;51.424;6.762;2022-10-30T01:26:01;101483.88;;;17.75;63.53
9009;BME280;62813;51.424;6.762;2022-10-30T01:28:49;101483.31;;;17.69;63.47
9009;BME280;62813;51.424;6.762;2022-10-30T01:34:10;101481.88;;;17.64;63.99
9009;BME280;62813;51.424;6.762;2022-10-30T01:36:48;101469.13;;;17.58;64.12
9009;BME280;62813;51.424;6.762;2022-10-30T01:39:23;101475.47;;;17.54;64.49
9009;BME280;62813;51.424;6.762;2022-10-30T01:41:50;101473.13;;;17.49;64.87
9009;BME280;62813;51.424;6.762;2022-10-30T01:44:22;101467.03;;;17.49;64.78
9009;BME280;62813;51.424;6.762;2022-10-30T01:47:29;101470.03;;;17.42;64.86
9009;BME280;62813;51.424;6.762;2022-10-30T01:58:43;101468.31;;;17.26;65.68
9009;BME280;62813;51.424;6.762;2022-10-30T02:01:14;101468.50;;;17.23;66.13
9009;BME280;62813;51.424;6.762;2022-10-30T02:03:41;101461.56;;;17.22;65.83
9009;BME280;62813;51.424;6.762;2022-10-30T02:06:08;101459.94;;;17.19;65.82
9009;BME280;62813;51.424;6.762;2022-10-30T02:08:34;101449.66;;;17.16;65.92
9009;BME280;62813;51.424;6.762;2022-10-30T02:11:01;101452.47;;;17.13;66.50
9009;BME280;62813;51.424;6.762;2022-10-30T02:13:28;101456.09;;;17.10;66.57
9009;BME280;62813;51.424;6.762;2022-10-30T02:15:57;101453.66;;;17.07;66.39
9009;BME280;62813;51.424;6.762;2022-10-30T02:18:24;101457.22;;;17.06;66.69
9009;BME280;62813;51.424;6.762;2022-10-30T02:20:51;101456.28;;;17.07;66.31
9009;BME280;62813;51.424;6.762;2022-10-30T02:23:17;101459.16;;;17.03;66.76
9009;BME280;62813;51.424;6.762;2022-10-30T02:25:45;101467.09;;;17.01;66.51
9009;BME280;62813;51.424;6.762;2022-10-30T02:28:11;101466.34;;;16.99;67.05
9009;BME280;62813;51.424;6.762;2022-10-30T02:30:39;101465.66;;;16.96;66.76
9009;BME280;62813;51.424;6.762;2022-10-30T02:33:06;101470.06;;;16.95;66.80
9009;BME280;62813;51.424;6.762;2022-10-30T02:35:32;101476.50;;;16.89;67.14
9009;BME280;62813;51.424;6.762;2022-10-30T02:38:01;101476.78;;;16.85;67.43
9009;BME280;62813;51.424;6.762;2022-10-30T02:40:28;101483.09;;;16.81;67.81
9009;BME280;62813;51.424;6.762;2022-10-30T02:42:55;101476.16;;;16.80;67.80
9009;BME280;62813;51.424;6.762;2022-10-30T02:45:21;101480.66;;;16.78;67.76
9009;BME280;62813;51.424;6.762;2022-10-30T02:47:48;101485.13;;;16.76;67.78
9009;BME280;62813;51.424;6.762;2022-10-30T02:50:15;101488.78;;;16.73;67.74
9009;BME280;62813;51.424;6.762;2022-10-30T02:52:42;101478.47;;;16.70;68.29
9009;BME280;62813;51.424;6.762;2022-10-30T02:55:09;101480.22;;;16.70;68.38
9009;BME280;62813;51.424;6.762;2022-10-30T02:57:35;101487.31;;;16.68;68.71
9009;BME280;62813;51.424;6.762;2022-10-30T03:00:03;101483.94;;;16.66;68.32
9009;BME280;62813;51.424;6.762;2022-10-30T03:02:30;101484.09;;;16.62;68.65
9009;BME280;62813;51.424;6.762;2022-10-30T03:04:56;101484.09;;;16.62;68.65
9009;BME280;62813;51.424;6.762;2022-10-30T03:07:23;101487.94;;;16.57;68.98
9009;BME280;62813;51.424;6.762;2022-10-30T03:09:49;101490.69;;;16.54;69.32
9009;BME280;62813;51.424;6.762;2022-10-30T03:12:17;101482.16;;;16.50;69.08
9009;BME280;62813;51.424;6.762;2022-10-30T03:14:44;101488.50;;;16.46;69.71
9009;BME280;62813;51.424;6.762;2022-10-30T03:17:11;101485.13;;;16.44;69.54
9009;BME280;62813;51.424;6.762;2022-10-30T03:19:37;101496.66;;;16.40;69.85
9009;BME280;62813;51.424;6.762;2022-10-30T03:22:06;101485.44;;;16.38;69.89
9009;BME280;62813;51.424;6.762;2022-10-30T03:24:33;101490.59;;;16.40;69.91
9009;BME280;62813;51.424;6.762;2022-10-30T03:26:59;101498.78;;;16.33;69.96
9009;BME280;62813;51.424;6.762;2022-10-30T03:29:27;101501.47;;;16.32;70.41
9009;BME280;62813;51.424;6.762;2022-10-30T03:31:53;101498.06;;;16.30;70.81
9009;BME280;62813;51.424;6.762;2022-10-30T03:34:20;101495.53;;;16.28;70.46
9009;BME280;62813;51.424;6.762;2022-10-30T03:36:47;101488.66;;;16.26;70.76
9009;BME280;62813;51.424;6.762;2022-10-30T03:39:14;101498.38;;;16.24;70.64
9009;BME280;62813;51.424;6.762;2022-10-30T03:41:41;101501.19;;;16.21;71.03
9009;BME280;62813;51.424;6.762;2022-10-30T03:44:08;101500.41;;;16.19;70.91
9009;BME280;62813;51.424;6.762;2022-10-30T03:46:35;101497.78;;;16.19;71.10
9009;BME280;62813;51.424;6.762;2022-10-30T03:49:02;101497.88;;;16.17;70.95
9009;BME280;62813;51.424;6.762;2022-10-30T03:51:29;101499.63;;;16.17;70.91
9009;BME280;62813;51.424;6.762;2022-10-30T03:53:55;101505.91;;;16.14;71.40
9009;BME280;62813;51.424;6.762;2022-10-30T03:56:22;101505.81;;;16.16;71.09
9009;BME280;62813;51.424;6.762;2022-10-30T03:58:48;101507.81;;;16.11;70.88
9009;BME280;62813;51.424;6.762;2022-10-30T04:01:15;101512.28;;;16.08;71.28
9009;BME280;62813;51.424;6.762;2022-10-30T04:03:42;101517.66;;;16.05;71.30
9009;BME280;62813;51.424;6.762;2022-10-30T04:06:09;101508.97;;;16.05;71.30
9009;BME280;62813;51.424;6.762;2022-10-30T04:08:35;101511.84;;;16.00;71.73
9009;BME280;62813;51.424;6.762;2022-10-30T04:11:02;101506.91;;;15.94;71.88
9009;BME280;62813;51.424;6.762;2022-10-30T04:13:29;101509.69;;;15.91;71.65
9009;BME280;62813;51.424;6.762;2022-10-30T04:15:56;101510.59;;;15.90;72.27
9009;BME280;62813;51.424;6.762;2022-10-30T04:18:24;101506.38;;;15.88;72.21
9009;BME280;62813;51.424;6.762;2022-10-30T04:20:50;101506.53;;;15.85;72.05
9009;BME280;62813;51.424;6.762;2022-10-30T04:23:18;101514.53;;;15.81;72.37
9009;BME280;62813;51.424;6.762;2022-10-30T04:25:46;101514.75;;;15.77;72.42
9009;BME280;62813;51.424;6.762;2022-10-30T04:28:12;101515.78;;;15.74;72.37
9009;BME280;62813;51.424;6.762;2022-10-30T04:30:39;101516.63;;;15.75;72.51
9009;BME280;62813;51.424;6.762;2022-10-30T04:33:09;101514.94;;;15.74;72.53
9009;BME280;62813;51.424;6.762;2022-10-30T04:35:37;101516.94;;;15.69;72.90
9009;BME280;62813;51.424;6.762;2022-10-30T04:38:06;101516.16;;;15.67;72.84
9009;BME280;62813;51.424;6.762;2022-10-30T04:40:35;101513.69;;;15.64;72.49
9009;BME280;62813;51.424;6.762;2022-10-30T04:43:02;101508.53;;;15.62;72.94
9009;BME280;62813;51.424;6.762;2022-10-30T04:45:29;101502.63;;;15.59;73.13
9009;BME280;62813;51.424;6.762;2022-10-30T04:48:01;101501.81;;;15.57;73.23
9009;BME280;62813;51.424;6.762;2022-10-30T04:50:29;101496.75;;;15.53;73.41
9009;BME280;62813;51.424;6.762;2022-10-30T04:53:08;101494.31;;;15.50;73.13
9009;BME280;62813;51.424;6.762;2022-10-30T04:55:35;101496.28;;;15.45;73.81
9009;BME280;62813;51.424;6.762;2022-10-30T04:58:02;101500.78;;;15.43;73.87
9009;BME280;62813;51.424;6.762;2022-10-30T05:00:30;101501.75;;;15.41;73.84
9009;BME280;62813;51.424;6.762;2022-10-30T05:02:58;101499.22;;;15.39;74.06
9009;BME280;62813;51.424;6.762;2022-10-30T05:05:29;101501.91;;;15.38;73.57
9009;BME280;62813;51.424;6.762;2022-10-30T05:07:56;101496.59;;;15.39;73.91
9009;BME280;62813;51.424;6.762;2022-10-30T05:10:23;101501.06;;;15.37;73.43
9009;BME280;62813;51.424;6.762;2022-10-30T05:12:51;101490.13;;;15.29;73.86
9009;BME280;62813;51.424;6.762;2022-10-30T05:15:21;101496.41;;;15.25;74.37
9009;BME280;62813;51.424;6.762;2022-10-30T05:17:52;101487.66;;;15.26;74.06
9009;BME280;62813;51.424;6.762;2022-10-30T05:20:19;101492.88;;;15.26;73.83
9009;BME280;62813;51.424;6.762;2022-10-30T05:22:54;101499.19;;;15.22;74.29
9009;BME280;62813;51.424;6.762;2022-10-30T05:25:22;101486.41;;;15.16;74.40
9009;BME280;62813;51.424;6.762;2022-10-30T05:27:49;101492.50;;;15.16;74.52
9009;BME280;62813;51.424;6.762;2022-10-30T05:30:15;101483.81;;;15.16;74.38
9009;BME280;62813;51.424;6.762;2022-10-30T05:32:42;101491.47;;;15.19;73.89
9009;BME280;62813;51.424;6.762;2022-10-30T05:35:09;101476.72;;;15.18;74.08
9009;BME280;62813;51.424;6.762;2022-10-30T05:37:35;101475.06;;;15.15;74.30
9009;BME280;62813;51.424;6.762;2022-10-30T05:40:02;101473.34;;;15.16;74.02
9009;BME280;62813;51.424;6.762;2022-10-30T05:42:29;101473.59;;;15.10;74.59
9009;BME280;62813;51.424;6.762;2022-10-30T05:44:55;101475.28;;;15.11;74.48
9009;BME280;62813;51.424;6.762;2022-10-30T05:47:27;101472.69;;;15.11;74.17
9009;BME280;62813;51.424;6.762;2022-10-30T05:49:54;101474.53;;;15.09;74.06
9009;BME280;62813;51.424;6.762;2022-10-30T05:52:21;101482.41;;;15.07;74.33
9009;BME280;62813;51.424;6.762;2022-10-30T05:54:47;101490.34;;;15.06;73.98
9009;BME280;62813;51.424;6.762;2022-10-30T05:57:14;101482.56;;;15.04;74.34
9009;BME280;62813;51.424;6.762;2022-10-30T05:59:40;101485.28;;;15.03;74.30
9009;BME280;62813;51.424;6.762;2022-10-30T06:04:43;101479.19;;;15.02;74.49
9009;BME280;62813;51.424;6.762;2022-10-30T06:07:09;101490.50;;;15.03;74.25
9009;BME280;62813;51.424;6.762;2022-10-30T06:09:36;101489.72;;;15.00;74.59
9009;BME280;62813;51.424;6.762;2022-10-30T06:12:03;101495.84;;;14.99;74.96
9009;BME280;62813;51.424;6.762;2022-10-30T06:14:29;101496.78;;;14.98;74.44
9009;BME280;62813;51.424;6.762;2022-10-30T06:16:56;101497.72;;;14.97;74.57
9009;BME280;62813;51.424;6.762;2022-10-30T06:19:23;101505.56;;;14.97;74.52
9009;BME280;62813;51.424;6.762;2022-10-30T06:21:49;101493.47;;;14.95;74.59
9009;BME280;62813;51.424;6.762;2022-10-30T06:24:16;101498.72;;;14.95;74.80
9009;BME280;62813;51.424;6.762;2022-10-30T06:26:43;101501.38;;;14.93;74.45
9009;BME280;62813;51.424;6.762;2022-10-30T06:29:09;101498.84;;;14.92;74.89
9009;BME280;62813;51.424;6.762;2022-10-30T06:31:36;101493.69;;;14.90;74.40
9009;BME280;62813;51.424;6.762;2022-10-30T06:34:02;101490.31;;;14.88;74.58
9009;BME280;62813;51.424;6.762;2022-10-30T06:36:30;101496.47;;;14.87;74.92
9009;BME280;62813;51.424;6.762;2022-10-30T06:38:57;101498.28;;;14.85;74.89
9009;BME280;62813;51.424;6.762;2022-10-30T06:41:24;101494.81;;;14.85;74.71
9009;BME280;62813;51.424;6.762;2022-10-30T06:43:55;101497.44;;;14.85;74.84
9009;BME280;62813;51.424;6.762;2022-10-30T06:46:22;101502.75;;;14.83;75.18
9009;BME280;62813;51.424;6.762;2022-10-30T06:48:56;101501.81;;;14.84;74.98
9009;BME280;62813;51.424;6.762;2022-10-30T06:51:23;101495.63;;;14.87;74.85
9009;BME280;62813;51.424;6.762;2022-10-30T06:53:49;101508.59;;;14.88;74.98
9009;BME280;62813;51.424;6.762;2022-10-30T06:56:16;101501.53;;;14.90;75.09
9009;BME280;62813;51.424;6.762;2022-10-30T06:58:43;101504.88;;;14.94;74.98
9009;BME280;62813;51.424;6.762;2022-10-30T07:01:09;101502.16;;;14.95;75.00
9009;BME280;62813;51.424;6.762;2022-10-30T07:03:36;101502.16;;;14.95;74.67
9009;BME280;62813;51.424;6.762;2022-10-30T07:06:03;101505.56;;;14.97;74.95
9009;BME280;62813;51.424;6.762;2022-10-30T07:08:30;101502.94;;;14.97;74.71
9009;BME280;62813;51.424;6.762;2022-10-30T07:10:56;101511.53;;;14.99;74.69
9009;BME280;62813;51.424;6.762;2022-10-30T07:13:24;101501.72;;;15.05;74.90
9009;BME280;62813;51.424;6.762;2022-10-30T07:15:53;101504.25;;;15.06;74.58
9009;BME280;62813;51.424;6.762;2022-10-30T07:18:19;101516.38;;;15.09;74.69
9009;BME280;62813;51.424;6.762;2022-10-30T07:20:46;101511.91;;;15.11;74.66
9009;BME280;62813;51.424;6.762;2022-10-30T07:23:12;101525.72;;;15.13;74.65
9009;BME280;62813;51.424;6.762;2022-10-30T07:25:39;101522.94;;;15.17;74.27
9009;BME280;62813;51.424;6.762;2022-10-30T07:28:08;101519.19;;;15.23;74.36
9009;BME280;62813;51.424;6.762;2022-10-30T07:30:34;101520.50;;;15.32;73.92
9009;BME280;62813;51.424;6.762;2022-10-30T07:33:03;101524.53;;;15.39;74.08
9009;BME280;62813;51.424;6.762;2022-10-30T07:35:31;101519.97;;;15.42;73.61
9009;BME280;62813;51.424;6.762;2022-10-30T07:38:09;101512.75;;;15.47;73.14
9009;BME280;62813;51.424;6.762;2022-10-30T07:40:36;101516.84;;;15.53;73.06
9009;BME280;62813;51.424;6.762;2022-10-30T07:43:03;101512.28;;;15.57;72.88
9009;BME280;62813;51.424;6.762;2022-10-30T07:45:30;101515.53;;;15.62;73.01
9009;BME280;62813;51.424;6.762;2022-10-30T07:47:57;101509.00;;;15.70;72.77
9009;BME280;62813;51.424;6.762;2022-10-30T07:50:24;101506.59;;;15.83;72.59
9009;BME280;62813;51.424;6.762;2022-10-30T07:52:50;101503.53;;;15.92;72.62
9009;BME280;62813;51.424;6.762;2022-10-30T07:55:17;101511.44;;;16.08;71.69
9009;BME280;62813;51.424;6.762;2022-10-30T07:57:44;101497.03;;;16.17;71.45
9009;BME280;62813;51.424;6.762;2022-10-30T08:00:12;101487.91;;;16.24;70.96
9009;BME280;62813;51.424;6.762;2022-10-30T08:02:39;101495.41;;;16.31;70.79
9009;BME280;62813;51.424;6.762;2022-10-30T08:05:06;101493.28;;;16.38;70.85
9009;BME280;62813;51.424;6.762;2022-10-30T08:07:35;101497.38;;;16.44;70.44
9009;BME280;62813;51.424;6.762;2022-10-30T08:10:04;101495.19;;;16.52;70.42
9009;BME280;62813;51.424;6.762;2022-10-30T08:12:31;101486.16;;;16.57;70.36
9009;BME280;62813;51.424;6.762;2022-10-30T08:14:58;101485.81;;;16.63;69.62
9009;BME280;62813;51.424;6.762;2022-10-30T08:17:25;101487.19;;;16.71;69.57
9009;BME280;62813;51.424;6.762;2022-10-30T08:19:51;101489.53;;;16.75;69.35
9009;BME280;62813;51.424;6.762;2022-10-30T08:22:18;101489.88;;;16.85;69.12
9009;BME280;62813;51.424;6.762;2022-10-30T08:24:45;101489.38;;;16.94;68.25
9009;BME280;62813;51.424;6.762;2022-10-30T08:27:12;101482.09;;;16.99;67.78
9009;BME280;62813;51.424;6.762;2022-10-30T08:29:41;101488.00;;;17.03;67.85
9009;BME280;62813;51.424;6.762;2022-10-30T08:32:08;101475.28;;;17.11;67.63
9009;BME280;62813;51.424;6.762;2022-10-30T08:34:35;101479.34;;;17.16;67.50
9009;BME280;62813;51.424;6.762;2022-10-30T08:37:01;101478.41;;;17.17;67.17
9009;BME280;62813;51.424;6.762;2022-10-30T08:39:28;101475.19;;;17.28;67.17
9009;BME280;62813;51.424;6.762;2022-10-30T08:41:56;101480.16;;;17.49;67.23
9009;BME280;62813;51.424;6.762;2022-10-30T08:44:23;101477.66;;;17.61;67.40
9009;BME280;62813;51.424;6.762;2022-10-30T08:46:50;101483.13;;;17.72;67.60
9009;BME280;62813;51.424;6.762;2022-10-30T08:49:17;101479.09;;;17.81;67.08
9009;BME280;62813;51.424;6.762;2022-10-30T08:51:43;101471.22;;;17.95;66.99
9009;BME280;62813;51.424;6.762;2022-10-30T08:54:11;101470.78;;;18.03;66.43
9009;BME280;62813;51.424;6.762;2022-10-30T08:56:38;101473.59;;;18.14;65.82
9009;BME280;62813;51.424;6.762;2022-10-30T08:59:04;101472.28;;;18.21;65.88
9009;BME280;62813;51.424;6.762;2022-10-30T09:01:31;101469.84;;;18.33;65.71
9009;BME280;62813;51.424;6.762;2022-10-30T09:03:57;101471.00;;;18.43;65.10
9009;BME280;62813;51.424;6.762;2022-10-30T09:06:24;101468.72;;;18.51;64.76
9009;BME280;62813;51.424;6.762;2022-10-30T09:08:51;101468.44;;;18.56;63.96
9009;BME280;62813;51.424;6.762;2022-10-30T09:11:17;101464.59;;;18.61;64.17
9009;BME280;62813;51.424;6.762;2022-10-30T09:13:44;101463.44;;;18.65;63.67
9009;BME280;62813;51.424;6.762;2022-10-30T09:16:10;101459.38;;;18.74;64.19
9009;BME280;62813;51.424;6.762;2022-10-30T09:18:37;101457.00;;;18.84;63.74
9009;BME280;62813;51.424;6.762;2022-10-30T09:21:04;101450.31;;;18.92;63.81
9009;BME280;62813;51.424;6.762;2022-10-30T09:23:31;101450.53;;;19.02;62.96
9009;BME280;62813;51.424;6.762;2022-10-30T09:25:57;101450.13;;;18.95;62.68
9009;BME280;62813;51.424;6.762;2022-10-30T09:28:24;101441.91;;;19.00;62.62
9009;BME280;62813;51.424;6.762;2022-10-30T09:30:50;101434.75;;;19.02;62.43
9009;BME280;62813;51.424;6.762;2022-10-30T09:33:18;101443.19;;;19.07;62.23
9009;BME280;62813;51.424;6.762;2022-10-30T09:35:44;101435.41;;;19.05;61.86
9009;BME280;62813;51.424;6.762;2022-10-30T09:38:11;101435.66;;;19.15;61.64
9009;BME280;62813;51.424;6.762;2022-10-30T09:40:41;101439.03;;;19.17;60.80
9009;BME280;62813;51.424;6.762;2022-10-30T09:56:33;101451.72;;;19.38;60.50
9009;BME280;62813;51.424;6.762;2022-10-30T10:04:34;101447.22;;;19.40;60.01
9009;BME280;62813;51.424;6.762;2022-10-30T10:07:14;101443.75;;;19.39;60.05
9009;BME280;62813;51.424;6.762;2022-10-30T10:09:42;101443.06;;;19.35;59.87
9009;BME280;62813;51.424;6.762;2022-10-30T10:15:09;101430.06;;;19.47;59.53
9009;BME280;62813;51.424;6.762;2022-10-30T10:17:40;101429.13;;;19.48;59.95
9009;BME280;62813;51.424;6.762;2022-10-30T10:20:29;101434.94;;;19.53;59.84
9009;BME280;62813;51.424;6.762;2022-10-30T10:23:02;101438.06;;;19.58;59.56
9009;BME280;62813;51.424;6.762;2022-10-30T10:25:30;101442.50;;;19.57;59.17
9009;BME280;62813;51.424;6.762;2022-10-30T10:28:22;101436.38;;;19.57;59.17
9009;BME280;62813;51.424;6.762;2022-10-30T10:36:32;101434.72;;;19.69;58.98
9009;BME280;62813;51.424;6.762;2022-10-30T10:39:20;101428.63;;;19.68;59.21
9009;BME280;62813;51.424;6.762;2022-10-30T10:42:08;101441.56;;;19.71;59.10
9009;BME280;62813;51.424;6.762;2022-10-30T10:47:35;101434.41;;;19.73;59.27
9009;BME280;62813;51.424;6.762;2022-10-30T10:50:18;101431.34;;;19.79;59.10
9009;BME280;62813;51.424;6.762;2022-10-30T10:52:54;101422.28;;;19.83;59.33
9009;BME280;62813;51.424;6.762;2022-10-30T10:55:26;101426.41;;;19.87;59.18
9009;BME280;62813;51.424;6.762;2022-10-30T10:57:57;101420.19;;;19.88;59.06
9009;BME280;62813;51.424;6.762;2022-10-30T11:00:25;101420.69;;;19.94;58.91
9009;BME280;62813;51.424;6.762;2022-10-30T11:03:13;101422.28;;;19.96;58.82
9009;BME280;62813;51.424;6.762;2022-10-30T11:05:50;101423.00;;;19.98;58.64
9009;BME280;62813;51.424;6.762;2022-10-30T11:08:22;101416.38;;;20.05;58.53
9009;BME280;62813;51.424;6.762;2022-10-30T11:10:56;101418.88;;;20.07;58.56
9009;BME280;62813;51.424;6.762;2022-10-30T11:13:43;101415.28;;;20.08;58.69
9009;BME280;62813;51.424;6.762;2022-10-30T11:18:54;101411.28;;;20.15;58.92
9009;BME280;62813;51.424;6.762;2022-10-30T11:21:23;101411.91;;;20.18;59.02
9009;BME280;62813;51.424;6.762;2022-10-30T11:23:50;101407.25;;;20.22;59.21
9009;BME280;62813;51.424;6.762;2022-10-30T11:28:49;101410.25;;;20.30;58.98
9009;BME280;62813;51.424;6.762;2022-10-30T11:31:19;101404.97;;;20.30;58.92
9009;BME280;62813;51.424;6.762;2022-10-30T11:33:46;101404.13;;;20.30;58.72
9009;BME280;62813;51.424;6.762;2022-10-30T11:36:15;101401.16;;;20.34;58.76
9009;BME280;62813;51.424;6.762;2022-10-30T11:38:43;101402.63;;;20.38;58.67
9009;BME280;62813;51.424;6.762;2022-10-30T11:41:10;101397.88;;;20.43;57.92
9009;BME280;62813;51.424;6.762;2022-10-30T11:43:39;101396.81;;;20.46;57.87
9009;BME280;62813;51.424;6.762;2022-10-30T11:46:09;101396.97;;;20.56;57.61
9009;BME280;62813;51.424;6.762;2022-10-30T11:48:38;101395.91;;;20.58;57.71
9009;BME280;62813;51.424;6.762;2022-10-30T11:51:09;101391.88;;;20.65;57.69
9009;BME280;62813;51.424;6.762;2022-10-30T11:53:41;101389.84;;;20.69;57.26
9009;BME280;62813;51.424;6.762;2022-10-30T11:56:18;101394.91;;;20.72;57.46
9009;BME280;62813;51.424;6.762;2022-10-30T11:58:51;101389.25;;;20.65;56.89
9009;BME280;62813;51.424;6.762;2022-10-30T12:01:26;101390.91;;;20.66;57.26
9009;BME280;62813;51.424;6.762;2022-10-30T12:03:54;101384.56;;;20.69;57.09
9009;BME280;62813;51.424;6.762;2022-10-30T12:11:43;101380.13;;;20.69;56.39
9009;BME280;62813;51.424;6.762;2022-10-30T12:14:16;101382.25;;;20.64;56.49
9009;BME280;62813;51.424;6.762;2022-10-30T12:16:46;101384.91;;;20.64;57.03
9009;BME280;62813;51.424;6.762;2022-10-30T12:19:15;101393.44;;;20.68;57.00
9009;BME280;62813;51.424;6.762;2022-10-30T12:21:45;101394.06;;;20.71;56.83
9009;BME280;62813;51.424;6.762;2022-10-30T12:24:20;101394.44;;;20.78;56.53
9009;BME280;62813;51.424;6.762;2022-10-30T12:26:50;101387.03;;;20.83;55.92
9009;BME280;62813;51.424;6.762;2022-10-30T12:29:22;101387.41;;;20.90;55.75
9009;BME280;62813;51.424;6.762;2022-10-30T12:32:16;101387.56;;;20.99;55.61
9009;BME280;62813;51.424;6.762;2022-10-30T12:37:42;101385.69;;;21.02;56.14
9009;BME280;62813;51.424;6.762;2022-10-30T12:40:22;101387.56;;;20.99;55.55
9009;BME280;62813;51.424;6.762;2022-10-30T12:45:30;101387.94;;;21.06;54.80
9009;BME280;62813;51.424;6.762;2022-10-30T12:48:10;101383.06;;;21.13;54.64
9009;BME280;62813;51.424;6.762;2022-10-30T12:53:41;101380.75;;;21.21;54.37
9009;BME280;62813;51.424;6.762;2022-10-30T12:56:23;101380.13;;;21.17;54.15
9009;BME280;62813;51.424;6.762;2022-10-30T13:02:11;101372.81;;;21.21;54.38
9009;BME280;62813;51.424;6.762;2022-10-30T13:04:44;101367.66;;;21.31;54.17
9009;BME280;62813;51.424;6.762;2022-10-30T13:07:24;101370.31;;;21.31;53.77
9009;BME280;62813;51.424;6.762;2022-10-30T13:10:04;101375.47;;;21.32;53.80
9009;BME280;62813;51.424;6.762;2022-10-30T13:12:38;101368.50;;;21.31;54.18
9009;BME280;62813;51.424;6.762;2022-10-30T13:15:11;101359.41;;;21.35;54.14
9009;BME280;62813;51.424;6.762;2022-10-30T13:17:42;101361.91;;;21.37;54.53
9009;BME280;62813;51.424;6.762;2022-10-30T13:20:11;101362.75;;;21.37;54.47
9009;BME280;62813;51.424;6.762;2022-10-30T13:22:53;101364.91;;;21.32;54.57
9009;BME280;62813;51.424;6.762;2022-10-30T13:28:22;101363.44;;;21.17;54.83
9009;BME280;62813;51.424;6.762;2022-10-30T13:31:12;101362.78;;;21.13;54.96
9009;BME280;62813;51.424;6.762;2022-10-30T13:33:54;101368.00;;;21.15;55.01
9009;BME280;62813;51.424;6.762;2022-10-30T13:39:16;101372.13;;;21.06;55.92
9009;BME280;62813;51.424;6.762;2022-10-30T13:49:53;101377.19;;;21.09;56.20
9009;BME280;62813;51.424;6.762;2022-10-30T13:52:22;101370.41;;;21.18;59.67
9009;BME280;62813;51.424;6.762;2022-10-30T13:55:23;101381.97;;;21.28;60.78
9009;BME280;62813;51.424;6.762;2022-10-30T14:11:43;101375.22;;;21.24;57.63
9009;BME280;62813;51.424;6.762;2022-10-30T14:20:38;101358.81;;;21.08;57.65
9009;BME280;62813;51.424;6.762;2022-10-30T14:22:40;101366.25;;;21.03;57.89
9009;BME280;62813;51.424;6.762;2022-10-30T14:25:14;101356.84;;;20.98;58.14
9009;BME280;62813;51.424;6.762;2022-10-30T14:27:41;101359.13;;;20.92;58.72
9009;BME280;62813;51.424;6.762;2022-10-30T14:30:18;101351.56;;;20.87;58.35
9009;BME280;62813;51.424;6.762;2022-10-30T14:32:51;101358.72;;;20.85;58.24
9009;BME280;62813;51.424;6.762;2022-10-30T14:35:31;101347.69;;;20.80;58.67
9009;BME280;62813;51.424;6.762;2022-10-30T14:40:46;101343.19;;;20.69;58.78
9009;BME280;62813;51.424;6.762;2022-10-30T14:43:30;101342.59;;;20.66;59.46
9009;BME280;62813;51.424;6.762;2022-10-30T14:46:12;101348.09;;;20.63;59.20
9009;BME280;62813;51.424;6.762;2022-10-30T14:48:56;101356.25;;;20.60;59.60
9009;BME280;62813;51.424;6.762;2022-10-30T14:51:40;101348.53;;;20.57;59.26
9009;BME280;62813;51.424;6.762;2022-10-30T14:54:31;101354.88;;;20.54;59.58
9009;BME280;62813;51.424;6.762;2022-10-30T14:56:59;101354.03;;;20.54;59.63
9009;BME280;62813;51.424;6.762;2022-10-30T14:59:33;101353.22;;;20.53;60.41
9009;BME280;62813;51.424;6.762;2022-10-30T15:07:41;101345.50;;;20.50;60.14
9009;BME280;62813;51.424;6.762;2022-10-30T15:10:18;101343.94;;;20.48;59.90
9009;BME280;62813;51.424;6.762;2022-10-30T15:15:17;101359.25;;;20.42;60.68